Aviation Digital Data Service (ADDS)

Output produced by METARs form (0343 UTC 23 November 2017)
found at http://www.aviationweather.gov/adds/metars/
 
DAUA 230300Z 35006KT CAVOK 13/02 Q1017
TAF DAUA 222300Z 2300/2324 04010KT 9999 FEW046 SCT100
       
DABB 230330Z 23005KT CAVOK 10/08 Q1016
TAF DABB 222300Z 2300/2324 21009KT 9999 FEW026 BKN200 
     PROB30 
     TEMPO 2301/2307 3000 BR BKN010 
     BECMG 2308/2310 27011KT
       
DABT 230300Z 00000KT 9999 FEW026 SCT100 05/01 Q1019
TAF DABT 222300Z 2300/2324 29008KT 9999 FEW030 SCT100 
     PROB40 
     TEMPO 2300/2310 FEW026TCU 
     PROB40 
     TEMPO 2301/2308 5000 -RA BKN030 
     BECMG 2308/2310 35011KT 
     BECMG 2319/2322 VRB02KT
       
DAOR 230300Z 00000KT CAVOK 04/M09 Q1021
TAF DAOR 230200Z 2303/2312 35008KT CAVOK
       
DAAE 230300Z 23010KT CAVOK 13/04 Q1017
TAF DAAE 222300Z 2300/2324 24009KT 9999 FEW026 
     BECMG 2308/2310 31012KT 
     BECMG 2319/2321 18008KT
       
DAUB 230300Z 30002KT 9999 BKN040 12/03 Q1020
TAF DAUB 222300Z 2300/2324 28008KT 9999 BKN040 
     PROB40 
     TEMPO 2200/2310 5000 -RA FEW026TCU 
     BECMG 2307/2310 22011KT 
     BECMG 2319/2322 34007KT
       
DAOI 230300Z 06004KT CAVOK 10/07 Q1017
TAF DAOI 222300Z 2300/2324 06005KT CAVOK 
     BECMG 2301/2304 VRB02KT 
     BECMG 2309/2312 30008KT 
     BECMG 2314/2317 VRB02KT 
     BECMG 2318/2321 15008KT
       
DABC 230330Z VRB02KT 9999 FEW033 BKN200 07/02 Q1019
TAF DABC 222300Z 2300/2324 35008KT 9999 FEW030 SCT100 
     PROB30 
     TEMPO 2303/2310 FEW026TCU 
     BECMG 2308/2310 27011KT 
     BECMG 2319/2322 VRB02KT
       
DAAG 230330Z VRB02KT CAVOK 10/07 Q1017
TAF DAAG 222300Z 2300/2324 VRB02KT 8000 NSC 
     PROB30 
     TEMPO 2300/2305 4000 BR 
     BECMG 2310/2313 32010KT 
     BECMG 2318/2321 VRB02KT
       
DAAJ 230300Z 01004KT CAVOK 14/M03 Q1021
TAF DAAJ 222300Z 2300/2324 14008KT 9999 FEW046 SCT100 
     BECMG 2306/2309 32010KT 
     PROB30 
     TEMPO 2308/2314 FEW040CB
       
DAUE 230300Z 33004KT CAVOK 08/02 Q1020
DAUO 230300Z 36003KT 9999 SCT033 SCT100 12/11 Q1019
TAF DAUO 230200Z 2303/2312 33006KT 9999 SCT033 SCT100 
     PROB30 
     TEMPO 2303/2306 3000 BR BKN015
       
DAUG 230300Z 00000KT 9999 SCT040 BKN090 11/05 Q1020
TAF DAUG 222300Z 2300/2324 VRB02KT 9999 SCT040 SCT090 
     BECMG 2306/2309 33010KT
       
DAUH 230330Z 32006KT 4000 BR BKN010 SCT040 13/12 Q1019
TAF AMD DAUH 230011Z 2300/2324 35008KT 1500 BR BKN010 
     TEMPO 2300/2305 0600 FG BKN005 
     BECMG 2307/2310 6000 NSW SCT040
       
DAAP 230300Z 24004KT CAVOK 15/05 Q1017
TAF DAAP 230200Z 2303/2312 19010KT 9999 FEW046 SCT100
       
DAUZ 230300Z 05008KT CAVOK 09/M02 Q1017
TAF DAUZ 222300Z 2300/2324 09010KT 9999 FEW046 
     BECMG 2306/2309 VRB02KT 
     BECMG 2310/2313 32010KT 
     PROB30 
     TEMPO 2314/2318 FEW040CB
       
TAF DAUI 222300Z 2300/2324 06010KT 9999 FEW046 SCT100
       
DAAV 230300Z 10004KT CAVOK 13/07 Q1017
TAF DAAV 222300Z 2300/2324 23008KT 9999 FEW026 
     BECMG 2308/2310 29011KT 
     BECMG 2320/2322 23007KT
       
DAUL 230300Z 00000KT CAVOK 05/M00 Q1020
TAF DAUL 230200Z 2303/2312 VRB02KT 9999 SCT033
       
DAOV 230300Z 00000KT CAVOK 06/M04 Q1018
TAF DAOV 222300Z 2300/2309 VRB02KT CAVOK 
     BECMG 2301/2303 14005KT
       
DAAY 222200Z 21006KT CAVOK 09/M04 Q1021
DAOO 230330Z 21004KT CAVOK 08/06 Q1018
TAF DAOO 222300Z 2300/2324 VRB02KT CAVOK 
     BECMG 2321/2324 18005KT
       
DAOL 230300Z 00000KT CAVOK 07/07 Q1018
DAUU 230300Z 34007KT 6000 FEW046 SCT100 10/09 Q1019
TAF DAUU 230200Z 2303/2312 34008KT 6000 SCT040 
     TEMPO 2303/2306 2000 BR BKN015
       
DAAS 230300Z 00000KT CAVOK 03/M02 Q1020
TAF DAAS 222300Z 2300/2324 26008KT 9999 FEW030 SCT100 
     PROB40 
     TEMPO 2303/2311 FEW026TCU 
     BECMG 2309/2311 32010KT 
     BECMG 2319/2322 VRB02KT
       
DAAT 230330Z 09013KT 9999 SCT046 SCT100 17/M10 Q1021
TAF DAAT 222300Z 2300/2324 08010KT 9999 SCT046 SCT100 
     PROB30 
     TEMPO 2304/2310 FEW040CB 
     BECMG 2311/2314 14010KT 
     BECMG 2315/2318 26010KT
       
DABS 230300Z 00000KT 8000 SCT020 BKN040 07/05 Q1019
TAF DABS 222300Z 2300/2324 18008KT 9999 FEW030 SCT100 
     PROB40 
     TEMPO 2300/2310 FEW026TCU 
     PROB40 
     TEMPO 2302/2308 5000 -RA BKN030 
     BECMG 2308/2310 32010KT
       
DAOB 230300Z 03003KT CAVOK 05/M04 Q1019
TAF DAOB 222300Z 2300/2324 VRB02KT CAVOK 
     TEMPO 2300/2304 14010KT 
     BECMG 2312/2315 32010KT 
     BECMG 2320/2323 VRB02KT
       
DAUT 230300Z 04010KT CAVOK 11/03 Q1018
TAF DAUT 230200Z 2303/2312 04010KT 9999 FEW046 SCT100
       
DAOF 230300Z 02002KT CAVOK 08/M07 Q1018
TAF DAOF 230200Z 2303/2312 06008KT CAVOK
       
DAON 230330Z 09002KT CAVOK 05/00 Q1018
TAF DAON 222300Z 2300/2324 VRB02KT CAVOK 
     BECMG 2310/2312 22005KT 
     BECMG 2313/2315 VRB02KT
       
DAUK 230300Z 32004KT 9999 SCT040 09/06 Q1019
TAF DAUK 230200Z 2303/2312 34008KT 9999 SCT040 
     PROB30 
     TEMPO 2303/2306 3000 BR BKN015